Pevek, Russia
Current Conditions -  °F | °C
As of 7:00 AM on Saturday 22 Nov 2014 (Local Time) from UHMA Reporting Station
Light Snow Light Snow  
Wind Chill: -10°   Ceiling: 8000
Heat Index:   Visibility: 6mi
Dew Point:   Wind: 13mph
Humidity: 79%   Direction: 10°N
Pressure: 29.68"   Gusts: 20mph
Location:  69.7°N, 170.38°E
Report Text: UHMA 211900Z 01006G09MPS 9999 -SN OVC080 M14/M17 Q1005 NOSIGRMK QFE750/1000
Loading
Personal Weather Stations






























Interactive Weather Map New forecast layout! Learn more

10-Day Weather Forecast

Advertisements
Track Severe Weather on mobile